createdAt,value
2022-08-19T00:01:52.725Z,22.52
2022-08-19T00:04:49.740Z,22.57
2022-08-19T00:07:18.126Z,22.60
2022-08-19T00:09:47.004Z,22.55
2022-08-19T00:12:15.244Z,22.53
2022-08-19T00:14:43.719Z,22.44
2022-08-19T00:17:12.007Z,22.33
2022-08-19T00:19:41.845Z,22.20
2022-08-19T00:22:09.919Z,22.11
2022-08-19T00:24:39.607Z,22.10
2022-08-19T00:27:25.910Z,22.09
2022-08-19T00:29:55.516Z,22.07
2022-08-19T00:32:24.021Z,22.10
2022-08-19T00:34:54.672Z,22.06
2022-08-19T00:37:27.112Z,21.99
2022-08-19T00:39:56.976Z,21.97
2022-08-19T00:42:26.201Z,21.95
2022-08-19T00:44:54.317Z,22.00
2022-08-19T00:47:22.537Z,22.01
2022-08-19T00:49:56.948Z,21.98
2022-08-19T00:52:30.588Z,21.89
2022-08-19T00:55:02.504Z,21.81
2022-08-19T00:57:36.267Z,21.77
2022-08-19T01:00:09.666Z,21.80
2022-08-19T01:02:37.889Z,21.84
2022-08-19T01:05:11.165Z,21.83
2022-08-19T01:07:41.739Z,21.80
2022-08-19T01:10:15.106Z,21.78
2022-08-19T01:12:44.322Z,21.74
2022-08-19T01:15:15.357Z,21.72
2022-08-19T01:17:45.493Z,21.73
2022-08-19T01:20:17.274Z,21.75
2022-08-19T01:22:53.471Z,21.77
2022-08-19T01:25:29.481Z,21.82
2022-08-19T01:28:01.702Z,21.89
2022-08-19T01:30:39.313Z,21.95
2022-08-19T01:33:12.941Z,22.00
2022-08-19T01:35:43.604Z,22.09
2022-08-19T01:38:22.841Z,22.06
2022-08-19T01:40:53.267Z,22.09
2022-08-19T01:43:21.999Z,22.13
2022-08-19T01:45:50.109Z,22.15
2022-08-19T01:48:18.696Z,22.26
2022-08-19T01:50:49.094Z,22.40
2022-08-19T01:53:24.762Z,22.40
2022-08-19T01:55:59.118Z,22.42
2022-08-19T01:58:38.025Z,22.42
2022-08-19T02:01:08.371Z,22.34
2022-08-19T02:03:36.395Z,22.20
2022-08-19T02:06:06.314Z,22.08
2022-08-19T02:08:38.104Z,21.93
2022-08-19T02:11:08.524Z,21.81
2022-08-19T02:13:36.621Z,21.68
2022-08-19T02:16:04.787Z,21.56
2022-08-19T02:18:32.942Z,21.42
2022-08-19T02:21:01.056Z,21.33
2022-08-19T02:23:29.147Z,21.25
2022-08-19T02:25:57.337Z,21.14
2022-08-19T02:28:25.470Z,21.14
2022-08-19T02:30:53.806Z,21.15
2022-08-19T02:33:21.829Z,21.16
2022-08-19T02:35:58.919Z,21.15
2022-08-19T02:38:27.162Z,21.14
2022-08-19T02:40:58.550Z,21.12
2022-08-19T02:43:29.413Z,21.06
2022-08-19T02:46:28.223Z,20.96
2022-08-19T02:49:11.234Z,20.99
2022-08-19T02:51:45.795Z,21.00
2022-08-19T02:54:15.127Z,21.09
2022-08-19T02:56:45.539Z,21.00
2022-08-19T02:59:13.761Z,21.00
2022-08-19T03:01:43.648Z,20.95
2022-08-19T03:04:16.688Z,20.89
2022-08-19T03:06:47.364Z,20.93
2022-08-19T03:09:17.421Z,20.97
2022-08-19T03:11:48.721Z,20.96
2022-08-19T03:14:20.933Z,20.96
2022-08-19T03:16:53.497Z,20.95
2022-08-19T03:19:24.864Z,21.00
2022-08-19T03:21:53.376Z,21.02
2022-08-19T03:24:22.370Z,20.99
2022-08-19T03:26:53.760Z,20.98
2022-08-19T03:29:31.165Z,21.03
2022-08-19T03:32:04.714Z,21.04
2022-08-19T03:34:46.708Z,21.01
2022-08-19T03:37:15.384Z,21.00
2022-08-19T03:39:44.045Z,21.05
2022-08-19T03:42:38.513Z,21.04
2022-08-19T03:45:01.007Z,21.01
2022-08-19T03:47:31.586Z,21.04
2022-08-19T03:49:59.902Z,21.07
2022-08-19T03:52:31.264Z,21.07
2022-08-19T03:54:59.392Z,21.06
2022-08-19T03:57:31.933Z,21.03
2022-08-19T04:00:12.939Z,21.01
2022-08-19T04:02:58.046Z,21.05
2022-08-19T04:05:30.225Z,21.13
2022-08-19T04:08:00.314Z,21.17
2022-08-19T04:10:37.014Z,21.14
2022-08-19T04:13:07.427Z,21.10
2022-08-19T04:15:42.579Z,21.09
2022-08-19T04:18:20.129Z,21.08
2022-08-19T04:20:48.918Z,21.08
2022-08-19T04:23:17.895Z,21.09
2022-08-19T04:25:46.061Z,21.15
2022-08-19T04:28:14.623Z,21.20
2022-08-19T04:30:48.618Z,21.19
2022-08-19T04:33:26.825Z,21.17
2022-08-19T04:35:59.355Z,21.13
2022-08-19T04:38:27.526Z,21.08
2022-08-19T04:41:14.468Z,21.08
2022-08-19T04:43:42.716Z,21.15
2022-08-19T04:46:18.151Z,21.23
2022-08-19T04:49:10.347Z,21.31
2022-08-19T04:51:43.501Z,21.32
2022-08-19T04:54:12.539Z,21.31
2022-08-19T04:56:41.700Z,21.34
2022-08-19T04:59:19.837Z,21.36
2022-08-19T05:01:51.051Z,21.42
2022-08-19T05:04:21.392Z,21.41
2022-08-19T05:06:50.533Z,21.37
2022-08-19T05:09:19.111Z,21.40
2022-08-19T05:11:47.096Z,21.41
2022-08-19T05:14:15.327Z,21.39
2022-08-19T05:16:43.438Z,21.47
2022-08-19T05:19:30.686Z,21.58
2022-08-19T05:22:20.996Z,21.63
2022-08-19T05:25:21.394Z,21.70
2022-08-19T05:28:10.879Z,21.75
2022-08-19T05:30:49.820Z,21.77
2022-08-19T05:33:20.652Z,21.75
2022-08-19T05:36:09.390Z,21.77
2022-08-19T05:38:52.508Z,21.82
2022-08-19T05:41:47.625Z,21.90
2022-08-19T05:44:24.763Z,22.01
2022-08-19T05:46:57.307Z,22.09
2022-08-19T05:49:28.268Z,22.21
2022-08-19T05:51:57.106Z,22.46
2022-08-19T05:54:25.820Z,22.74
2022-08-19T05:56:55.105Z,22.93
2022-08-19T05:59:24.909Z,22.99
2022-08-19T06:01:56.819Z,23.09
2022-08-19T06:04:25.465Z,23.25
2022-08-19T06:06:54.846Z,23.47
2022-08-19T06:09:24.053Z,23.68
2022-08-19T06:12:00.054Z,23.79
2022-08-19T06:14:31.687Z,23.95
2022-08-19T06:17:07.335Z,24.18
2022-08-19T06:19:42.065Z,24.32
2022-08-19T06:22:13.173Z,24.44
2022-08-19T06:24:41.620Z,24.57
2022-08-19T06:27:14.121Z,24.68
2022-08-19T06:29:43.674Z,24.67
2022-08-19T06:32:14.650Z,24.42
2022-08-19T06:34:47.152Z,24.34
2022-08-19T06:37:18.516Z,24.33
2022-08-19T06:39:49.295Z,24.20
2022-08-19T06:42:21.714Z,24.04
2022-08-19T06:44:53.277Z,24.08
2022-08-19T06:47:28.463Z,24.03
2022-08-19T06:50:14.185Z,24.07
2022-08-19T06:52:44.119Z,24.11
2022-08-19T06:55:12.971Z,24.14
2022-08-19T06:57:41.650Z,24.16
2022-08-19T07:00:20.077Z,24.10
2022-08-19T07:02:59.084Z,24.16
2022-08-19T07:05:32.951Z,24.25
2022-08-19T07:08:05.027Z,24.42
2022-08-19T07:10:34.123Z,24.64
2022-08-19T07:13:02.936Z,24.87
2022-08-19T07:15:32.133Z,24.99
2022-08-19T07:18:01.014Z,25.13
2022-08-19T07:20:29.593Z,25.37
2022-08-19T07:22:58.263Z,25.57
2022-08-19T07:25:32.187Z,25.64
2022-08-19T07:28:01.505Z,25.75
2022-08-19T07:30:31.498Z,25.79
2022-08-19T07:33:00.294Z,25.68
2022-08-19T07:35:33.257Z,25.78
2022-08-19T07:38:11.861Z,25.94
2022-08-19T07:40:54.660Z,26.14
2022-08-19T07:43:34.958Z,26.28
2022-08-19T07:46:04.288Z,26.21
2022-08-19T07:48:35.856Z,26.16
2022-08-19T07:51:14.371Z,26.23
2022-08-19T07:54:16.984Z,26.35
2022-08-19T07:56:52.512Z,26.59
2022-08-19T07:59:48.548Z,26.80
2022-08-19T08:02:28.887Z,26.82
2022-08-19T08:05:19.208Z,26.79
2022-08-19T08:08:22.741Z,26.78
2022-08-19T08:11:01.353Z,26.68
2022-08-19T08:13:31.456Z,26.65
2022-08-19T08:16:00.532Z,26.60
2022-08-19T08:18:42.562Z,26.34
2022-08-19T08:21:50.122Z,26.25
2022-08-19T08:24:36.362Z,26.27
2022-08-19T08:27:17.815Z,26.18
2022-08-19T08:29:46.718Z,26.29
2022-08-19T08:32:19.097Z,26.31
2022-08-19T08:35:33.046Z,26.00
2022-08-19T08:38:16.727Z,25.33
2022-08-19T08:41:09.755Z,24.73
2022-08-19T08:44:00.403Z,24.33
2022-08-19T08:46:55.966Z,24.08
2022-08-19T08:49:57.754Z,23.91
2022-08-19T08:52:47.794Z,24.03
2022-08-19T08:55:27.980Z,24.42
2022-08-19T08:58:44.852Z,24.65
2022-08-19T09:01:14.419Z,25.06
2022-08-19T09:03:46.071Z,25.32
2022-08-19T09:06:33.587Z,25.23
2022-08-19T09:09:14.926Z,25.21
2022-08-19T09:12:08.687Z,25.47
2022-08-19T09:14:58.552Z,25.56
2022-08-19T09:17:36.434Z,25.59
2022-08-19T09:20:11.521Z,25.62
2022-08-19T09:22:41.773Z,25.71
2022-08-19T09:25:41.211Z,25.64
2022-08-19T09:28:15.070Z,25.63
2022-08-19T09:31:05.505Z,25.36
2022-08-19T09:33:39.459Z,25.26
2022-08-19T09:36:35.396Z,25.19
2022-08-19T09:39:16.083Z,25.17
2022-08-19T09:42:01.878Z,25.11
2022-08-19T09:44:30.933Z,25.11
2022-08-19T09:47:06.048Z,25.03
2022-08-19T09:49:38.942Z,24.93
2022-08-19T09:52:17.334Z,24.73
2022-08-19T09:54:57.237Z,24.66
2022-08-19T09:57:57.036Z,24.59
2022-08-19T10:00:34.788Z,24.68
2022-08-19T10:03:03.533Z,24.73
2022-08-19T10:05:50.154Z,24.78
2022-08-19T10:08:21.796Z,24.94
2022-08-19T10:11:39.957Z,25.07
2022-08-19T10:14:30.549Z,25.33
2022-08-19T10:19:55.600Z,25.65
2022-08-19T10:22:27.591Z,25.75
2022-08-19T10:24:59.513Z,25.86
2022-08-19T10:27:28.909Z,26.02
2022-08-19T10:30:01.052Z,26.18
2022-08-19T10:39:03.473Z,26.58
2022-08-19T10:42:45.991Z,26.76
2022-08-19T10:45:52.610Z,26.83
2022-08-19T10:51:33.385Z,26.93
2022-08-19T10:54:49.730Z,26.78
2022-08-19T10:57:46.051Z,26.54
2022-08-19T11:00:17.598Z,26.40
2022-08-19T11:02:47.445Z,26.39
2022-08-19T11:05:20.065Z,26.46
2022-08-19T11:07:48.652Z,26.22
2022-08-19T11:10:21.801Z,25.85
2022-08-19T11:12:55.359Z,25.79
2022-08-19T11:15:23.634Z,26.09
2022-08-19T11:17:55.702Z,26.20
2022-08-19T11:20:36.590Z,25.87
2022-08-19T11:23:09.251Z,25.59
2022-08-19T11:26:02.368Z,25.53
2022-08-19T11:28:37.810Z,25.34
2022-08-19T11:31:20.840Z,25.26
2022-08-19T11:33:55.234Z,25.19
2022-08-19T11:36:26.815Z,25.05
2022-08-19T11:38:55.766Z,25.06
2022-08-19T11:41:26.692Z,25.13
2022-08-19T11:43:56.351Z,25.02
2022-08-19T11:46:30.673Z,24.86
2022-08-19T11:49:01.789Z,24.67
2022-08-19T11:51:51.844Z,24.54
2022-08-19T11:54:22.545Z,24.44
2022-08-19T11:56:51.092Z,24.59
2022-08-19T11:59:22.959Z,24.95
2022-08-19T12:01:51.738Z,25.09
2022-08-19T12:04:20.535Z,25.01
2022-08-19T12:07:04.565Z,25.07
2022-08-19T12:09:42.961Z,25.12
2022-08-19T12:12:13.540Z,25.12
2022-08-19T12:14:58.147Z,25.26
2022-08-19T12:17:32.788Z,25.37
2022-08-19T12:20:06.241Z,25.51
2022-08-19T12:23:01.248Z,25.37
2022-08-19T12:25:32.274Z,25.09
2022-08-19T12:28:12.504Z,25.07
2022-08-19T12:30:54.572Z,25.15
2022-08-19T12:33:29.821Z,25.24
2022-08-19T12:36:04.960Z,25.23
2022-08-19T12:38:48.064Z,25.28
2022-08-19T12:41:35.365Z,25.42
2022-08-19T12:44:14.527Z,25.51
2022-08-19T12:46:57.641Z,25.54
2022-08-19T12:49:54.569Z,25.63
2022-08-19T12:52:30.682Z,25.63
2022-08-19T12:55:08.778Z,25.53
2022-08-19T12:57:50.399Z,25.68
2022-08-19T13:00:26.902Z,25.77
2022-08-19T13:03:19.893Z,25.69
2022-08-19T13:05:51.491Z,25.47
2022-08-19T13:08:26.800Z,25.49
2022-08-19T13:10:55.756Z,25.74
2022-08-19T13:13:35.664Z,25.95
2022-08-19T13:16:12.559Z,26.16
2022-08-19T13:18:56.369Z,25.90
2022-08-19T13:21:31.933Z,25.61
2022-08-19T13:24:07.520Z,25.51
2022-08-19T13:26:44.147Z,25.57
2022-08-19T13:29:38.623Z,25.76
2022-08-19T13:32:42.668Z,25.85
2022-08-19T13:35:22.211Z,25.83
2022-08-19T13:37:53.525Z,25.62
2022-08-19T13:40:28.576Z,25.55
2022-08-19T13:43:17.636Z,25.64
2022-08-19T13:46:04.774Z,25.80
2022-08-19T13:48:37.074Z,25.92
2022-08-19T13:51:11.618Z,25.98
2022-08-19T13:54:10.061Z,25.88
2022-08-19T13:56:49.062Z,26.02
2022-08-19T13:59:18.307Z,26.03
2022-08-19T14:01:50.087Z,26.12
2022-08-19T14:04:21.731Z,26.29
2022-08-19T14:06:52.761Z,26.49
2022-08-19T14:09:21.293Z,26.61
2022-08-19T14:11:51.571Z,26.49
2022-08-19T14:14:20.591Z,26.05
2022-08-19T14:16:58.053Z,25.91
2022-08-19T14:19:30.338Z,25.87
2022-08-19T14:22:00.549Z,25.89
2022-08-19T14:24:37.464Z,25.91
2022-08-19T14:27:09.870Z,25.88
2022-08-19T14:29:47.746Z,25.76
2022-08-19T14:32:22.382Z,25.46
2022-08-19T14:34:55.657Z,25.22
2022-08-19T14:37:27.050Z,25.15
2022-08-19T14:40:00.120Z,25.18
2022-08-19T14:42:49.998Z,25.26
2022-08-19T14:45:42.999Z,25.32
2022-08-19T14:48:32.784Z,25.35
2022-08-19T14:51:09.820Z,25.26
2022-08-19T14:54:04.899Z,25.22
2022-08-19T14:57:11.336Z,25.27
2022-08-19T15:00:10.107Z,25.34
2022-08-19T15:03:03.874Z,25.42
2022-08-19T15:05:33.295Z,25.52
2022-08-19T15:08:06.774Z,25.49
2022-08-19T15:10:40.464Z,25.32
2022-08-19T15:13:13.246Z,25.29
2022-08-19T15:15:58.768Z,25.31
2022-08-19T15:18:38.716Z,25.45
2022-08-19T15:21:10.535Z,25.56
2022-08-19T15:23:46.325Z,25.65
2022-08-19T15:26:46.584Z,25.64
2022-08-19T15:29:35.109Z,25.63
2022-08-19T15:32:13.049Z,25.59
2022-08-19T15:34:51.183Z,25.59
2022-08-19T15:37:25.485Z,25.50
2022-08-19T15:40:02.621Z,25.37
2022-08-19T15:42:59.033Z,25.24
2022-08-19T15:45:33.003Z,25.21
2022-08-19T15:48:05.068Z,25.19
2022-08-19T15:50:33.337Z,25.11
2022-08-19T15:53:06.851Z,25.11
2022-08-19T15:55:41.898Z,25.16
2022-08-19T15:58:32.026Z,25.16
2022-08-19T16:01:47.756Z,25.13
2022-08-19T16:04:39.998Z,25.16
2022-08-19T16:07:12.829Z,25.13
2022-08-19T16:09:41.549Z,25.06
2022-08-19T16:12:12.801Z,24.99
2022-08-19T16:14:54.302Z,24.85
2022-08-19T16:17:25.741Z,24.74
2022-08-19T16:21:05.323Z,24.73
2022-08-19T16:23:54.552Z,24.82
2022-08-19T16:26:26.719Z,24.85
2022-08-19T16:29:34.295Z,24.89
2022-08-19T16:32:13.117Z,24.85
2022-08-19T16:34:47.692Z,24.83
2022-08-19T16:37:22.644Z,24.76
2022-08-19T16:39:51.377Z,24.63
2022-08-19T16:42:41.379Z,24.57
2022-08-19T16:45:55.836Z,24.54
2022-08-19T16:48:43.261Z,24.47
2022-08-19T16:51:19.547Z,24.40
2022-08-19T16:53:57.727Z,24.36
2022-08-19T16:56:27.948Z,24.33
2022-08-19T16:59:02.343Z,24.27
2022-08-19T17:01:39.324Z,24.26
2022-08-19T17:04:12.306Z,24.28
2022-08-19T17:06:49.991Z,24.30
2022-08-19T17:09:19.188Z,24.25
2022-08-19T17:12:06.161Z,24.17
2022-08-19T17:14:36.366Z,24.14
2022-08-19T17:17:14.087Z,24.08
2022-08-19T17:19:44.662Z,24.06
2022-08-19T17:22:34.933Z,24.01
2022-08-19T17:25:04.482Z,23.97
2022-08-19T17:27:33.027Z,23.92
2022-08-19T17:30:03.075Z,23.87
2022-08-19T17:32:35.141Z,23.87
2022-08-19T17:35:04.960Z,23.83
2022-08-19T17:37:39.460Z,23.75
2022-08-19T17:40:09.193Z,23.62
2022-08-19T17:42:40.495Z,23.54
2022-08-19T17:45:09.890Z,23.51
2022-08-19T17:47:39.571Z,23.47
2022-08-19T17:50:13.270Z,23.39
2022-08-19T17:52:43.226Z,23.33
2022-08-19T17:55:35.472Z,23.28
2022-08-19T17:58:20.140Z,23.23
2022-08-19T18:00:54.139Z,23.21
2022-08-19T18:03:39.193Z,23.19
2022-08-19T18:10:17.691Z,23.12
2022-08-19T18:12:46.521Z,23.12
2022-08-19T18:15:21.446Z,23.10
2022-08-19T18:17:53.033Z,23.08
2022-08-19T18:20:30.788Z,23.03
2022-08-19T18:23:44.377Z,23.03
2022-08-19T18:25:50.797Z,22.99
2022-08-19T18:28:25.362Z,22.94
2022-08-19T18:31:06.531Z,22.90
2022-08-19T18:33:44.596Z,22.85
2022-08-19T18:36:13.276Z,22.85
2022-08-19T18:39:03.901Z,22.80
2022-08-19T18:41:54.207Z,22.76
2022-08-19T18:44:46.868Z,22.70
2022-08-19T18:47:37.155Z,22.66
2022-08-19T18:50:13.859Z,22.64
2022-08-19T18:52:43.391Z,22.61
2022-08-19T18:55:18.311Z,22.57
2022-08-19T18:57:52.673Z,22.52
2022-08-19T19:00:24.412Z,22.45
2022-08-19T19:02:56.056Z,22.39
2022-08-19T19:05:28.376Z,22.33
2022-08-19T19:08:04.552Z,22.32
2022-08-19T19:10:36.614Z,22.32
2022-08-19T19:13:08.436Z,22.29
2022-08-19T19:15:39.618Z,22.23
2022-08-19T19:18:08.433Z,22.18
2022-08-19T19:20:36.845Z,22.15
2022-08-19T19:23:05.667Z,22.15
2022-08-19T19:25:44.833Z,22.11
2022-08-19T19:28:29.371Z,21.97
2022-08-19T19:30:59.011Z,21.91
2022-08-19T19:33:28.776Z,21.85
2022-08-19T19:35:57.574Z,21.81
2022-08-19T19:38:25.910Z,21.74
2022-08-19T19:40:55.063Z,21.72
2022-08-19T19:43:26.192Z,21.74
2022-08-19T19:45:57.786Z,21.69
2022-08-19T19:48:29.175Z,21.69
2022-08-19T19:50:57.524Z,21.67
2022-08-19T19:53:35.462Z,21.63
2022-08-19T19:56:04.558Z,21.59
2022-08-19T19:58:38.403Z,21.58
2022-08-19T20:01:13.278Z,21.56
2022-08-19T20:04:09.018Z,21.57
2022-08-19T20:06:42.114Z,21.60
2022-08-19T20:09:17.554Z,21.63
2022-08-19T20:11:54.657Z,21.62
2022-08-19T20:14:33.428Z,21.53
2022-08-19T20:17:03.082Z,21.51
2022-08-19T20:19:39.588Z,21.50
2022-08-19T20:22:08.346Z,21.46
2022-08-19T20:24:37.971Z,21.45
2022-08-19T20:27:12.774Z,21.44
2022-08-19T20:29:51.801Z,21.43
2022-08-19T20:32:29.505Z,21.44
2022-08-19T20:35:00.422Z,21.47
2022-08-19T20:37:30.031Z,21.48
2022-08-19T20:40:05.858Z,21.42
2022-08-19T20:48:12.932Z,21.27
2022-08-19T20:50:56.844Z,21.24
2022-08-19T20:53:28.529Z,21.26
2022-08-19T20:56:09.974Z,21.25
2022-08-19T20:59:09.676Z,21.25
2022-08-19T21:01:42.546Z,21.28
2022-08-19T21:04:15.351Z,21.25
2022-08-19T21:06:47.643Z,21.21
2022-08-19T21:09:37.650Z,21.20
2022-08-19T21:12:07.380Z,21.20
2022-08-19T21:14:42.222Z,21.11
2022-08-19T21:17:12.273Z,21.05
2022-08-19T21:19:41.938Z,21.02
2022-08-19T21:22:10.932Z,21.01
2022-08-19T21:24:39.997Z,21.01
2022-08-19T21:27:12.986Z,20.98
2022-08-19T21:29:42.631Z,20.95
2022-08-19T21:32:27.326Z,20.91
2022-08-19T21:34:56.197Z,20.91
2022-08-19T21:37:26.162Z,20.88
2022-08-19T21:39:56.695Z,20.88
2022-08-19T21:42:25.717Z,20.87
2022-08-19T21:44:55.668Z,20.86
2022-08-19T21:47:32.241Z,20.81
2022-08-19T21:50:02.074Z,20.77
2022-08-19T21:52:33.099Z,20.72
2022-08-19T21:55:01.446Z,20.70
2022-08-19T21:57:32.485Z,20.69
2022-08-19T22:00:00.817Z,20.67
2022-08-19T22:02:40.154Z,20.62
2022-08-19T22:05:25.409Z,20.60
2022-08-19T22:07:58.380Z,20.57
2022-08-19T22:10:40.433Z,20.54
2022-08-19T22:13:11.852Z,20.51
2022-08-19T22:15:44.621Z,20.50
2022-08-19T22:18:19.370Z,20.48
2022-08-19T22:20:52.850Z,20.48
2022-08-19T22:23:21.582Z,20.50
2022-08-19T22:25:51.414Z,20.50
2022-08-19T22:28:27.588Z,20.50
2022-08-19T22:30:56.896Z,20.52
2022-08-19T22:33:39.741Z,20.53
2022-08-19T22:36:32.471Z,20.53
2022-08-19T22:39:05.365Z,20.53
2022-08-19T22:41:41.005Z,20.53
2022-08-19T22:44:11.644Z,20.53
2022-08-19T22:46:43.070Z,20.52
2022-08-19T22:49:12.694Z,20.49
2022-08-19T22:52:00.261Z,20.46
2022-08-19T22:54:28.845Z,20.42
2022-08-19T22:57:12.050Z,20.40
2022-08-19T22:59:41.498Z,20.41
2022-08-19T23:02:10.066Z,20.41
2022-08-19T23:04:38.684Z,20.37
2022-08-19T23:07:09.503Z,20.34
2022-08-19T23:09:37.735Z,20.29
2022-08-19T23:12:08.354Z,20.26
2022-08-19T23:14:37.705Z,20.22
2022-08-19T23:17:06.245Z,20.19
2022-08-19T23:19:34.491Z,20.18
2022-08-19T23:22:02.799Z,20.17
2022-08-19T23:24:31.146Z,20.17
2022-08-19T23:27:28.963Z,20.16
2022-08-19T23:30:16.183Z,20.14
2022-08-19T23:32:47.690Z,20.13
2022-08-19T23:35:17.354Z,20.11
2022-08-19T23:37:45.533Z,20.09
2022-08-19T23:40:17.399Z,20.07
2022-08-19T23:42:46.855Z,20.03
2022-08-19T23:45:23.639Z,20.02
2022-08-19T23:47:53.406Z,19.99
2022-08-19T23:50:24.691Z,19.97
2022-08-19T23:52:56.071Z,19.96
2022-08-19T23:55:31.828Z,19.94
2022-08-19T23:58:01.022Z,19.93
